Data for 12/23/2012

Time Sea-Level Adjusted Pressure Absolute Pressure Temperature Relative Humidity Dew Point   
(mb) (inHg) (mb) (inHg) (C) (F) (%) (C) (F)
00:05 1009 29.8 839 24.78 3.2 37.8 41 -8.8 16.2
00:10 1010 29.83 839 24.78 3.1 37.5 42 -8.7 16.3
00:15 1010 29.83 839 24.78 3 37.4 43 -8.5 16.7
00:20 1010 29.83 839 24.78 2.8 37.1 45 -8.1 17.5
00:25 1010 29.83 839 24.78 2.4 36.4 48 -7.5 18.5
00:30 1010 29.83 839 24.78 2.1 35.7 50 -7.3 18.8
00:35 1010 29.83 839 24.78 1.9 35.4 49 -7.8 17.9
00:40 1010 29.83 839 24.78 2.1 35.7 48 -7.8 18
00:45 1010 29.83 839 24.78 2.1 35.8 49 -7.6 18.3
00:50 1010 29.83 839 24.78 2.1 35.7 49 -7.7 18.2
00:55 1010 29.83 839 24.78 1.9 35.5 50 -7.4 18.6
01:00 1010 29.83 839 24.78 1.7 35.1 51 -7.3 18.8
01:05 1010 29.83 839 24.78 1.7 35.1 51 -7.4 18.7
01:10 1010 29.83 839 24.78 1.7 35.1 50 -7.6 18.2
01:15 1009 29.8 839 24.78 1.8 35.2 50 -7.6 18.4
01:20 1009 29.8 839 24.78 1.7 35 52 -7.1 19.2
01:25 1009 29.8 839 24.78 1.3 34.4 52 -7.4 18.8
01:30 1009 29.8 839 24.78 1.2 34.2 52 -7.6 18.3
01:35 1010 29.83 839 24.78 1.3 34.3 52 -7.6 18.3
01:40 1010 29.83 839 24.78 1.4 34.5 51 -7.7 18.2
01:45 1010 29.83 839 24.78 1.5 34.6 51 -7.7 18.2
01:50 1010 29.83 839 24.78 1.4 34.5 50 -7.8 17.9
01:55 1010 29.83 839 24.78 1.6 34.8 50 -7.7 18.2
02:00 1010 29.83 839 24.78 1.5 34.6 50 -7.8 17.9
02:05 1010 29.83 839 24.78 1.4 34.5 49 -8.1 17.3
02:10 1010 29.83 839 24.78 1.7 35.1 46 -8.6 16.5
02:15 1010 29.83 839 24.78 2.3 36.1 45 -8.4 17
02:20 1010 29.83 839 24.78 2 35.6 47 -8.3 17.1
02:25 1010 29.83 839 24.78 2 35.6 46 -8.4 16.9
02:30 1010 29.83 839 24.78 1.9 35.4 47 -8.1 17.4
02:35 1010 29.83 839 24.78 1.8 35.2 46 -8.7 16.3
02:40 1010 29.83 839 24.78 2.1 35.7 45 -8.8 16.2
02:45 1010 29.83 839 24.78 2.2 35.9 45 -8.5 16.7
02:50 1010 29.83 839 24.78 2.1 35.8 45 -8.6 16.6
02:55 1010 29.83 839 24.78 2.1 35.8 45 -8.6 16.4
03:00 1010 29.83 839 24.78 2.1 35.8 44 -8.9 15.9
03:05 1010 29.83 839 24.78 2.5 36.4 43 -9 15.7
03:10 1010 29.83 839 24.78 2.7 36.8 42 -9 15.8
03:15 1010 29.83 839 24.78 2.5 36.5 44 -8.6 16.6
03:20 1010 29.83 840 24.81 2 35.7 45 -8.7 16.4
03:25 1010 29.83 840 24.81 2 35.7 46 -8.5 16.7
03:30 1010 29.83 840 24.81 1.9 35.5 47 -8.3 17
03:35 1010 29.83 840 24.81 1.9 35.4 47 -8.4 16.9
03:40 1011 29.85 840 24.81 1.8 35.2 47 -8.3 17.1
03:45 1011 29.85 840 24.81 1.8 35.2 48 -8.2 17.3
03:50 1011 29.85 840 24.81 1.7 35.1 49 -7.9 17.7
03:55 1011 29.85 840 24.81 1.6 34.8 49 -8 17.6
04:00 1011 29.85 840 24.81 1.4 34.5 50 -7.9 17.8
04:05 1011 29.85 840 24.81 1.3 34.4 52 -7.5 18.5
04:10 1011 29.85 840 24.81 1.2 34.1 52 -7.7 18.2
04:15 1011 29.85 840 24.81 1 33.8 53 -7.6 18.3
04:20 1011 29.85 841 24.83 0.8 33.5 67 -4.7 23.6
04:25 1011 29.85 841 24.83 -0.6 30.9 82 -3.4 26
04:30 1011 29.85 840 24.81 -1.4 29.4 83 -4 24.8
04:35 1011 29.85 840 24.81 -1.5 29.4 77 -5 23
04:40 1011 29.85 840 24.81 -0.9 30.4 69 -5.8 21.5
04:45 1011 29.85 840 24.81 -0.7 30.7 70 -5.5 22.1
04:50 1011 29.85 840 24.81 -0.9 30.4 70 -5.7 21.7
04:55 1011 29.85 840 24.81 -0.5 31.1 57 -8.1 17.5
05:00 1011 29.85 840 24.81 0.2 32.3 54 -8 17.6
05:05 1011 29.85 840 24.81 0.3 32.6 51 -8.7 16.4
05:10 1011 29.85 840 24.81 0.4 32.7 52 -8.4 16.8
05:15 1011 29.85 841 24.83 0.3 32.6 52 -8.3 17
05:20 1011 29.85 841 24.83 0.3 32.5 52 -8.5 16.7
05:25 1011 29.85 841 24.83 0.3 32.6 54 -7.9 17.7
05:30 1012 29.88 841 24.83 0.2 32.3 55 -7.8 17.9
05:35 1012 29.88 841 24.83 0.1 32.2 57 -7.5 18.5
05:40 1012 29.88 841 24.83 -0.2 31.7 61 -6.9 19.6
05:45 1012 29.88 841 24.83 -0.4 31.3 58 -7.7 18.1
05:50 1012 29.88 841 24.83 -0.1 31.8 55 -8 17.6
05:55 1012 29.88 841 24.83 0.1 32.1 62 -6.3 20.7
06:00 1012 29.88 842 24.86 -0.2 31.6 68 -5.5 22.1
06:05 1012 29.88 842 24.86 -0.7 30.8 71 -5.3 22.5
06:10 1012 29.88 842 24.86 -0.9 30.4 71 -5.4 22.2
06:15 1013 29.91 842 24.86 -0.9 30.3 71 -5.5 22.1
06:20 1013 29.91 842 24.86 -0.9 30.3 71 -5.5 22
06:25 1013 29.91 842 24.86 -1 30.2 70 -5.9 21.4
06:30 1013 29.91 842 24.86 -1 30.2 72 -5.4 22.2
06:35 1013 29.91 842 24.86 -1.2 29.8 74 -5.2 22.7
06:40 1013 29.91 842 24.86 -1.3 29.6 76 -5 23
06:45 1013 29.91 842 24.86 -1.4 29.6 77 -5 23.1
06:50 1013 29.91 842 24.86 -1.4 29.5 77 -4.9 23.1
06:55 1013 29.91 842 24.86 -1.4 29.4 77 -5 22.9
07:00 1013 29.91 842 24.86 -1.5 29.3 77 -5.1 22.9
07:05 1013 29.91 842 24.86 -1.5 29.2 77 -5.1 22.8
07:10 1013 29.91 842 24.86 -1.6 29 77 -5.1 22.8
07:15 1013 29.91 842 24.86 -1.6 29.1 76 -5.3 22.5
07:20 1013 29.91 842 24.86 -1.6 29.1 76 -5.4 22.3
07:25 1013 29.91 842 24.86 -1.7 29 74 -5.8 21.6
07:30 1013 29.91 843 24.89 -1.8 28.7 73 -6 21.2
07:35 1014 29.94 843 24.89 -2 28.3 74 -6.1 21
07:40 1014 29.94 843 24.89 -2.4 27.6 77 -5.9 21.5
07:45 1014 29.94 843 24.89 -3 26.6 78 -6.4 20.5
07:50 1014 29.94 843 24.89 -3 26.5 76 -6.8 19.8
07:55 1014 29.94 843 24.89 -2.9 26.8 72 -7.3 18.8
08:00 1014 29.94 843 24.89 -2.7 27.1 67 -8.1 17.5
08:05 1014 29.94 843 24.89 -2.6 27.4 67 -7.8 18
08:10 1014 29.94 843 24.89 -2.7 27.2 67 -7.9 17.7
08:15 1014 29.94 843 24.89 -2.7 27.1 66 -8.3 17.1
08:20 1014 29.94 843 24.89 -2.8 27 65 -8.4 16.9
08:25 1014 29.94 843 24.89 -3 26.6 66 -8.4 16.9
08:30 1014 29.94 843 24.89 -3.2 26.3 69 -8.2 17.3
08:35 1014 29.94 843 24.89 -3.7 25.4 72 -8 17.7
08:40 1014 29.94 843 24.89 -3.4 25.9 69 -8.3 17.1
08:45 1014 29.94 843 24.89 -3.2 26.2 69 -8.1 17.3
08:50 1014 29.94 843 24.89 -3.7 25.4 70 -8.4 16.9
08:55 1014 29.94 843 24.89 -3.7 25.3 71 -8.3 17
09:00 1014 29.94 843 24.89 -3.4 25.9 65 -9.1 15.6
09:05 1014 29.94 843 24.89 -3.2 26.2 65 -8.8 16.1
09:10 1014 29.94 844 24.92 -3.6 25.5 69 -8.5 16.7
09:15 1014 29.94 844 24.92 -4 24.8 71 -8.6 16.5
09:20 1014 29.94 844 24.92 -3.9 25 70 -8.6 16.5
09:25 1014 29.94 844 24.92 -3.9 25 69 -8.8 16.2
09:30 1014 29.94 844 24.92 -4.1 24.5 71 -8.7 16.3
09:35 1014 29.94 844 24.92 -4.3 24.2 70 -8.9 15.9
09:40 1015 29.97 844 24.92 -4.3 24.2 69 -9.2 15.5
09:45 1015 29.97 844 24.92 -4.3 24.3 69 -9.1 15.6
09:50 1015 29.97 844 24.92 -4.2 24.5 69 -9.1 15.6
09:55 1015 29.97 844 24.92 -4 24.8 68 -9 15.8
10:00 1015 29.97 844 24.92 -3.9 25 67 -9.2 15.4
10:05 1015 29.97 844 24.92 -4 24.7 66 -9.4 15.1
10:10 1015 29.97 844 24.92 -4.2 24.5 67 -9.4 15
10:15 1015 29.97 844 24.92 -4.3 24.2 69 -9.1 15.5
10:20 1015 29.97 844 24.92 -3.8 25.1 66 -9.4 15.1
10:25 1015 29.97 844 24.92 -3.5 25.6 64 -9.3 15.2
10:30 1015 29.97 844 24.92 -3.7 25.4 64 -9.5 15
10:35 1015 29.97 844 24.92 -3.9 25 64 -9.6 14.7
10:40 1015 29.97 844 24.92 -4 24.8 65 -9.6 14.8
10:45 1015 29.97 844 24.92 -4 24.8 65 -9.6 14.7
10:50 1015 29.97 844 24.92 -4.2 24.5 62 -10.4 13.3
10:55 1015 29.97 845 24.95 -4.2 24.4 61 -10.6 12.8
11:00 1015 29.97 845 24.95 -3.9 24.9 61 -10.4 13.3
11:05 1016 30 845 24.95 -3 26.7 56 -10.6 12.9
11:10 1016 30 845 24.95 -2.1 28.3 53 -10.3 13.4
11:15 1016 30 845 24.95 -2 28.5 55 -9.9 14.2
11:20 1016 30 845 24.95 -2.3 27.9 56 -10 14.1
11:25 1016 30 845 24.95 -1.6 29.2 53 -10 13.9
11:30 1016 30 845 24.95 -1.1 30 51 -10.1 13.9
11:35 1016 30 845 24.95 -0.6 30.9 48 -10.3 13.4
11:40 1016 30 845 24.95 -0.5 31 50 -9.7 14.5
11:45 1016 30 845 24.95 -0.5 31.1 48 -10.2 13.7
11:50 1016 30 845 24.95 0.2 32.3 46 -10.1 13.8
11:55 1015 29.97 845 24.95 0.7 33.3 44 -10.1 13.8
12:00 1015 29.97 845 24.95 0.6 33 43 -10.6 12.9
12:05 1015 29.97 844 24.92 0.5 33 45 -10 14
12:10 1015 29.97 844 24.92 0.8 33.5 42 -10.8 12.5
12:15 1015 29.97 844 24.92 1.1 34 40 -10.9 12.4
12:20 1015 29.97 844 24.92 2 35.6 39 -10.7 12.7
12:25 1015 29.97 844 24.92 2.1 35.8 38 -10.8 12.6
12:30 1015 29.97 844 24.92 1.8 35.3 39 -10.6 12.8
12:35 1015 29.97 844 24.92 1.5 34.8 39 -10.9 12.3
12:40 1015 29.97 844 24.92 1.5 34.7 40 -10.6 12.9
12:45 1015 29.97 844 24.92 1.1 34 42 -10.5 13.1
12:50 1015 29.97 844 24.92 1 33.7 40 -11.1 12.1
12:55 1015 29.97 844 24.92 0.9 33.6 41 -10.8 12.6
13:00 1014 29.94 844 24.92 1.1 34 40 -10.9 12.3
13:05 1014 29.94 844 24.92 1.6 34.8 37 -11.6 11.1
13:10 1015 29.97 844 24.92 2.4 36.3 36 -11.2 11.9
13:15 1014 29.94 844 24.92 2.7 36.8 35 -11.5 11.3
13:20 1014 29.94 844 24.92 2.7 36.9 34 -11.6 11.1
13:25 1014 29.94 844 24.92 2.1 35.9 32 -12.9 8.8
13:30 1014 29.94 844 24.92 2.7 36.9 32 -12.5 9.4
13:35 1014 29.94 844 24.92 2.8 37 31 -12.9 8.8
13:40 1014 29.94 844 24.92 3 37.4 31 -12.5 9.5
13:45 1014 29.94 844 24.92 3.4 38.2 30 -12.7 9.1
13:50 1014 29.94 844 24.92 2.8 37.1 33 -11.9 10.5
13:55 1014 29.94 844 24.92 3.2 37.7 33 -11.6 11.1
14:00 1014 29.94 844 24.92 2.8 37.1 39 -9.8 14.3
14:05 1014 29.94 844 24.92 2.5 36.5 33 -12.2 10
14:10 1014 29.94 844 24.92 2.7 36.8 35 -11.3 11.7
14:15 1014 29.94 843 24.89 2.9 37.3 32 -12 10.3
14:20 1014 29.94 843 24.89 3.1 37.6 31 -12.6 9.3
14:25 1014 29.94 843 24.89 3.8 38.9 29 -12.5 9.5
14:30 1014 29.94 843 24.89 3.8 38.8 28 -12.9 8.8
14:35 1014 29.94 843 24.89 3.3 38 33 -11.6 11.1
14:40 1014 29.94 843 24.89 3.4 38 31 -12.4 9.7
14:45 1014 29.94 843 24.89 3.4 38.2 33 -11.3 11.6
14:50 1013 29.91 843 24.89 3.5 38.2 28 -13.6 7.6
14:55 1013 29.91 842 24.86 2.7 36.8 35 -11.3 11.6
15:00 1013 29.91 842 24.86 2.7 36.9 30 -13.4 7.9
15:05 1013 29.91 842 24.86 2.9 37.2 29 -13.3 8
15:10 1013 29.91 842 24.86 2.8 37 30 -13.3 8.1
15:15 1013 29.91 842 24.86 2.3 36.1 31 -13.2 8.3
15:20 1013 29.91 842 24.86 2.4 36.3 29 -14 6.9
15:25 1013 29.91 842 24.86 2.4 36.3 28 -14.4 6.1
15:30 1013 29.91 843 24.89 2.4 36.2 32 -12.8 8.9
15:35 1013 29.91 843 24.89 1.7 35.1 33 -12.8 8.9
15:40 1013 29.91 843 24.89 1.9 35.4 33 -12.7 9.2
15:45 1013 29.91 843 24.89 1.9 35.4 32 -13.2 8.2
15:50 1013 29.91 843 24.89 1.8 35.2 32 -13.5 7.8
15:55 1013 29.91 843 24.89 2 35.7 31 -13.3 8
16:00 1013 29.91 843 24.89 2.4 36.3 34 -11.8 10.7
16:05 1013 29.91 843 24.89 1.9 35.4 35 -12 10.4
16:10 1013 29.91 843 24.89 1.2 34.2 33 -13.3 8.1
16:15 1013 29.91 843 24.89 1.3 34.3 34 -13 8.6
16:20 1013 29.91 843 24.89 1.4 34.6 32 -13.5 7.8
16:25 1013 29.91 842 24.86 1.3 34.4 33 -13.2 8.3
16:30 1013 29.91 842 24.86 1 33.9 33 -13.4 7.8
16:35 1013 29.91 842 24.86 1 33.8 33 -13.5 7.7
16:40 1013 29.91 842 24.86 0.8 33.5 33 -13.6 7.5
16:45 1013 29.91 842 24.86 0.7 33.2 34 -13.4 7.8
16:50 1013 29.91 842 24.86 0.6 33.1 34 -13.5 7.7
16:55 1013 29.91 842 24.86 0.4 32.7 34 -13.6 7.5
17:00 1013 29.91 842 24.86 0.2 32.3 35 -13.6 7.6
17:05 1013 29.91 842 24.86 -0 32 36 -13.4 7.8
17:10 1013 29.91 842 24.86 -0.4 31.4 38 -13.2 8.3
17:15 1013 29.91 842 24.86 -0.6 30.8 38 -13.4 7.9
17:20 1012 29.88 842 24.86 -0.9 30.4 38 -13.5 7.7
17:25 1012 29.88 842 24.86 -1 30.2 37 -13.9 7
17:30 1012 29.88 842 24.86 -1 30.1 38 -13.8 7.2
17:35 1012 29.88 842 24.86 -1.2 29.9 37 -14 6.7
17:40 1012 29.88 841 24.83 -1.1 30 37 -14 6.7
17:45 1012 29.88 841 24.83 -1.1 30 37 -14.1 6.7
17:50 1012 29.88 841 24.83 -1.1 30 37 -13.9 6.9
17:55 1012 29.88 841 24.83 -1.2 29.8 39 -13.6 7.6
18:00 1012 29.88 841 24.83 -1.5 29.3 39 -13.7 7.4
18:05 1012 29.88 841 24.83 -1.6 29.2 39 -13.7 7.3
18:10 1012 29.88 841 24.83 -1.6 29.1 41 -13.2 8.2
18:15 1012 29.88 841 24.83 -1.7 28.9 41 -13.2 8.2
18:20 1012 29.88 841 24.83 -1.8 28.7 43 -12.8 9
18:25 1012 29.88 841 24.83 -2 28.4 44 -12.6 9.3
18:30 1012 29.88 841 24.83 -1.9 28.6 45 -12.5 9.6
18:35 1012 29.88 841 24.83 -1.9 28.5 45 -12.4 9.7
18:40 1012 29.88 841 24.83 -1.9 28.5 45 -12.5 9.6
18:45 1012 29.88 841 24.83 -1.6 29.2 43 -12.6 9.4
18:50 1012 29.88 841 24.83 -1.6 29.1 44 -12.3 9.9
18:55 1012 29.88 841 24.83 -1.9 28.6 46 -12.1 10.2
19:00 1012 29.88 841 24.83 -2.1 28.3 47 -12 10.3
19:05 1012 29.88 841 24.83 -2.2 28 47 -12 10.4
19:10 1012 29.88 841 24.83 -2.1 28.1 48 -11.7 10.9
19:15 1012 29.88 841 24.83 -2.1 28.3 48 -11.7 10.9
19:20 1012 29.88 841 24.83 -1.9 28.5 47 -11.8 10.7
19:25 1012 29.88 841 24.83 -1.9 28.6 47 -11.7 10.9
19:30 1012 29.88 841 24.83 -1.9 28.6 47 -11.8 10.8
19:35 1012 29.88 841 24.83 -2 28.5 47 -11.9 10.6
19:40 1012 29.88 841 24.83 -1.9 28.6 47 -11.9 10.6
19:45 1011 29.85 841 24.83 -1.9 28.6 46 -12.1 10.3
19:50 1011 29.85 841 24.83 -1.7 28.9 45 -12.2 10.1
19:55 1011 29.85 841 24.83 -1.6 29.1 45 -12 10.4
20:00 1011 29.85 841 24.83 -1.9 28.6 47 -11.7 11
20:05 1011 29.85 841 24.83 -2.4 27.6 49 -11.7 10.9
20:10 1011 29.85 841 24.83 -2.6 27.4 49 -11.8 10.7
20:15 1011 29.85 841 24.83 -2.5 27.4 49 -11.8 10.7
20:20 1011 29.85 841 24.83 -2.4 27.7 49 -11.7 11
20:25 1011 29.85 841 24.83 -2.3 27.8 49 -11.6 11.2
20:30 1011 29.85 840 24.81 -2.3 27.8 48 -11.9 10.6
20:35 1011 29.85 840 24.81 -2.4 27.8 50 -11.5 11.3
20:40 1011 29.85 840 24.81 -2.5 27.6 49 -11.8 10.8
20:45 1011 29.85 840 24.81 -2.3 27.8 49 -11.7 11
20:50 1011 29.85 840 24.81 -2.4 27.7 49 -11.8 10.8
20:55 1011 29.85 840 24.81 -2.4 27.7 49 -11.7 10.9
21:00 1011 29.85 840 24.81 -2.3 27.9 49 -11.6 11.1
21:05 1011 29.85 840 24.81 -2.2 28 49 -11.7 11
21:10 1011 29.85 840 24.81 -2.2 28.1 48 -11.8 10.7
21:15 1011 29.85 840 24.81 -2.2 28 49 -11.5 11.3
21:20 1011 29.85 840 24.81 -2.1 28.2 47 -12 10.5
21:25 1011 29.85 840 24.81 -2 28.4 48 -11.7 10.9
21:30 1011 29.85 840 24.81 -2 28.4 47 -11.9 10.5
21:35 1011 29.85 840 24.81 -2.1 28.3 47 -11.8 10.7
21:40 1010 29.83 840 24.81 -2.1 28.2 48 -11.6 11
21:45 1010 29.83 840 24.81 -2.2 28.1 49 -11.5 11.2
21:50 1010 29.83 840 24.81 -2.2 28.1 48 -11.6 11.1
21:55 1010 29.83 839 24.78 -2.1 28.2 49 -11.5 11.4
22:00 1010 29.83 839 24.78 -2.1 28.2 49 -11.4 11.4
22:05 1010 29.83 839 24.78 -2.1 28.2 49 -11.5 11.3
22:10 1010 29.83 839 24.78 -2.1 28.2 49 -11.5 11.3
22:15 1010 29.83 839 24.78 -2.1 28.3 49 -11.5 11.4
22:20 1010 29.83 839 24.78 -2 28.4 49 -11.4 11.4
22:25 1010 29.83 839 24.78 -2 28.4 51 -11 12.3
22:30 1009 29.8 839 24.78 -2 28.4 49 -11.3 11.6
22:35 1009 29.8 839 24.78 -2 28.5 50 -11 12.2
22:40 1009 29.8 839 24.78 -1.9 28.6 50 -10.9 12.3
22:45 1009 29.8 838 24.75 -1.8 28.7 50 -11 12.2
22:50 1009 29.8 838 24.75 -1.6 29.2 49 -10.9 12.3
22:55 1009 29.8 838 24.75 -1.4 29.5 48 -11 12.1
23:00 1009 29.8 838 24.75 -1.2 29.8 49 -10.5 13.1
23:05 1009 29.8 838 24.75 -1.2 29.8 49 -10.6 13
23:10 1009 29.8 838 24.75 -1.1 30 49 -10.6 12.8
23:15 1009 29.8 838 24.75 -1.1 30 49 -10.4 13.2
23:20 1009 29.8 838 24.75 -1.1 30 49 -10.4 13.2
23:25 1009 29.8 838 24.75 -1.1 30.1 50 -10.3 13.4
23:30 1009 29.8 838 24.75 -1 30.2 48 -10.6 13
23:35 1009 29.8 838 24.75 -0.8 30.5 49 -10.2 13.7
23:40 1009 29.8 838 24.75 -0.9 30.4 49 -10.2 13.6
23:45 1009 29.8 838 24.75 -0.9 30.5 49 -10.3 13.5
23:50 1008 29.77 838 24.75 -0.7 30.7 48 -10.3 13.5
23:55 1008 29.77 838 24.75 -0.6 30.9 49 -10.1 13.8
24:00 1008 29.77 838 24.75 -0.6 30.9 50 -9.9 14.2